This is the latest recevied weather packets stored in our database for station/object SM6LNJ-13. If no packets are shown the sender has not sent any weather packets the latest 1 day(s).
| Time | Temp. | Humidity | Pressure | Rain* | Wind** | Luminosity | Snow |
|---|---|---|---|---|---|---|---|
| 1778350306 | 16.11° C | 46% | 1433.4 hPa | 0 mm | - | - | - |
| 1778350186 | 17.22° C | 43% | 1435.9 hPa | 0 mm | - | - | - |
| 1778349946 | 18.89° C | 42% | 1440.1 hPa | 0 mm | - | - | - |
| 1778349826 | 18.89° C | 42% | 1440.1 hPa | 0 mm | - | - | - |
| 1778349706 | 18.89° C | 42% | 1440.1 hPa | 0 mm | - | - | - |
| 1778349586 | 18.89° C | 42% | 1440.3 hPa | 0 mm | - | - | - |
| 1778349466 | 19.44° C | 41% | 1441.3 hPa | 0 mm | - | - | - |
| 1778349346 | 19.44° C | 42% | 1441.5 hPa | 0 mm | - | - | - |
| 1778349106 | 18.89° C | 41% | 1440.8 hPa | 0 mm | - | - | - |
| 1778348986 | 19.44° C | 41% | 1441.3 hPa | 0 mm | - | - | - |
| 1778348866 | 19.44° C | 41% | 1441.6 hPa | 0 mm | - | - | - |
| 1778348746 | 19.44° C | 41% | 1441.5 hPa | 0 mm | - | - | - |
| 1778348626 | 19.44° C | 41% | 1441 hPa | 0 mm | - | - | - |
| 1778348506 | 19.44° C | 41% | 1441.1 hPa | 0 mm | - | - | - |
| 1778348386 | 19.44° C | 40% | 1441.5 hPa | 0 mm | - | - | - |
| 1778348266 | 20° C | 39% | 1442.4 hPa | 0 mm | - | - | - |
| 1778348146 | 20° C | 39% | 1442.5 hPa | 0 mm | - | - | - |
| 1778347906 | 20° C | 40% | 1443 hPa | 0 mm | - | - | - |
| 1778347786 | 20° C | 40% | 1443 hPa | 0 mm | - | - | - |
| 1778347666 | 20° C | 40% | 1442.6 hPa | 0 mm | - | - | - |
| 1778347546 | 20° C | 41% | 1442.3 hPa | 0 mm | - | - | - |
| 1778347426 | 19.44° C | 41% | 1442.1 hPa | 0 mm | - | - | - |
| 1778347306 | 19.44° C | 41% | 1441.9 hPa | 0 mm | - | - | - |
| 1778347186 | 19.44° C | 41% | 1442.1 hPa | 0 mm | - | - | - |
| 1778347066 | 19.44° C | 40% | 1441.7 hPa | 0 mm | - | - | - |
* Rain latest hour (hover to see other rain measurements)
** Current wind speed in m/s (hover to see current wind gust speed)